createdAt,value
2023-05-17T00:00:42.899Z,0.58
2023-05-17T00:01:42.955Z,0.56
2023-05-17T00:02:43.210Z,0.56
2023-05-17T00:03:43.064Z,0.56
2023-05-17T00:04:43.210Z,0.56
2023-05-17T00:05:43.271Z,0.57
2023-05-17T00:06:43.285Z,0.57
2023-05-17T00:07:43.353Z,0.55
2023-05-17T00:08:43.415Z,0.55
2023-05-17T00:09:43.524Z,0.56
2023-05-17T00:10:43.544Z,0.57
2023-05-17T00:11:43.582Z,0.56
2023-05-17T00:12:43.786Z,0.56
2023-05-17T00:13:43.703Z,0.56
2023-05-17T00:14:43.771Z,0.55
2023-05-17T00:15:43.796Z,0.55
2023-05-17T00:16:43.890Z,0.55
2023-05-17T00:17:44.073Z,0.56
2023-05-17T00:18:44.152Z,0.56
2023-05-17T00:19:44.086Z,0.57
2023-05-17T00:20:44.151Z,0.56
2023-05-17T00:21:44.182Z,0.56
2023-05-17T00:22:44.258Z,0.55
2023-05-17T00:23:44.309Z,0.56
2023-05-17T00:24:44.396Z,0.56
2023-05-17T00:25:44.505Z,0.56
2023-05-17T00:26:44.495Z,0.55
2023-05-17T00:27:44.572Z,0.56
2023-05-17T00:28:44.587Z,0.57
2023-05-17T00:29:44.702Z,0.56
2023-05-17T00:30:44.757Z,0.55
2023-05-17T00:31:44.791Z,0.56
2023-05-17T00:32:45.317Z,0.55
2023-05-17T00:33:44.917Z,0.55
2023-05-17T00:34:45.033Z,0.56
2023-05-17T00:35:45.031Z,0.56
2023-05-17T00:36:45.115Z,0.55
2023-05-17T00:37:45.205Z,0.55
2023-05-17T00:38:45.304Z,0.55
2023-05-17T00:39:45.315Z,0.55
2023-05-17T00:40:45.328Z,0.55
2023-05-17T00:41:45.502Z,0.55
2023-05-17T00:42:45.742Z,0.54
2023-05-17T00:43:45.528Z,0.55
2023-05-17T00:44:45.577Z,0.55
2023-05-17T00:45:45.621Z,0.56
2023-05-17T00:46:45.657Z,0.55
2023-05-17T00:47:45.812Z,0.55
2023-05-17T00:48:45.784Z,0.55
2023-05-17T00:49:45.799Z,0.55
2023-05-17T00:50:45.816Z,0.55
2023-05-17T00:51:46.721Z,0.55
2023-05-17T00:52:46.263Z,0.56
2023-05-17T00:53:45.932Z,0.55
2023-05-17T00:54:45.968Z,0.55
2023-05-17T00:55:46.078Z,0.55
2023-05-17T00:56:46.104Z,0.55
2023-05-17T00:57:46.413Z,0.55
2023-05-17T00:58:46.156Z,0.55
2023-05-17T00:59:46.216Z,0.55
2023-05-17T01:00:46.233Z,0.55
2023-05-17T01:01:46.241Z,0.55
2023-05-17T01:02:46.372Z,0.55
2023-05-17T01:03:46.577Z,0.55
2023-05-17T01:04:46.515Z,0.55
2023-05-17T01:05:46.443Z,0.55
2023-05-17T01:06:46.516Z,0.56
2023-05-17T01:07:46.551Z,0.55
2023-05-17T01:08:46.636Z,0.56
2023-05-17T01:09:46.641Z,0.55
2023-05-17T01:10:46.698Z,0.55
2023-05-17T01:11:46.761Z,0.55
2023-05-17T01:12:46.763Z,0.55
2023-05-17T01:13:46.907Z,0.56
2023-05-17T01:14:46.906Z,0.55
2023-05-17T01:15:46.935Z,0.54
2023-05-17T01:16:46.969Z,0.55
2023-05-17T01:17:47.092Z,0.54
2023-05-17T01:18:47.293Z,0.56
2023-05-17T01:19:47.110Z,0.56
2023-05-17T01:20:47.139Z,0.56
2023-05-17T01:21:47.174Z,0.55
2023-05-17T01:22:47.243Z,0.55
2023-05-17T01:23:47.256Z,0.54
2023-05-17T01:24:47.333Z,0.54
2023-05-17T01:25:47.366Z,0.55
2023-05-17T01:26:47.401Z,0.55
2023-05-17T01:27:47.449Z,0.54
2023-05-17T01:28:47.549Z,0.55
2023-05-17T01:29:47.652Z,0.55
2023-05-17T01:30:47.620Z,0.55
2023-05-17T01:31:47.649Z,0.55
2023-05-17T01:32:47.829Z,0.55
2023-05-17T01:33:47.959Z,0.55
2023-05-17T01:34:47.742Z,0.55
2023-05-17T01:35:47.812Z,0.55
2023-05-17T01:36:47.858Z,0.54
2023-05-17T01:37:47.901Z,0.55
2023-05-17T01:38:47.981Z,0.55
2023-05-17T01:39:48.050Z,0.55
2023-05-17T01:40:48.028Z,0.55
2023-05-17T01:41:48.071Z,0.55
2023-05-17T01:42:48.097Z,0.55
2023-05-17T01:43:48.141Z,0.54
2023-05-17T01:44:48.149Z,0.54
2023-05-17T01:45:48.247Z,0.54
2023-05-17T01:46:48.203Z,0.55
2023-05-17T01:47:48.302Z,0.55
2023-05-17T01:48:48.354Z,0.54
2023-05-17T01:49:48.362Z,0.55
2023-05-17T01:50:48.414Z,0.55
2023-05-17T01:51:48.443Z,0.54
2023-05-17T01:52:48.487Z,0.54
2023-05-17T01:53:48.515Z,0.55
2023-05-17T01:54:48.554Z,0.54
2023-05-17T01:55:48.619Z,0.55
2023-05-17T01:56:48.646Z,0.55
2023-05-17T01:57:48.659Z,0.55
2023-05-17T01:58:48.810Z,0.54
2023-05-17T01:59:48.747Z,0.54
2023-05-17T02:00:48.776Z,0.54
2023-05-17T02:01:48.941Z,0.54
2023-05-17T02:02:48.954Z,0.53
2023-05-17T02:03:48.919Z,0.53
2023-05-17T02:04:48.906Z,0.54
2023-05-17T02:05:48.929Z,0.53
2023-05-17T02:06:48.971Z,0.55
2023-05-17T02:07:49.036Z,0.54
2023-05-17T02:08:49.043Z,0.55
2023-05-17T02:09:49.135Z,0.54
2023-05-17T02:10:49.146Z,0.54
2023-05-17T02:11:49.178Z,0.54
2023-05-17T02:12:49.235Z,0.54
2023-05-17T02:13:49.292Z,0.54
2023-05-17T02:14:49.300Z,0.53
2023-05-17T02:15:49.365Z,0.54
2023-05-17T02:16:49.411Z,0.54
2023-05-17T02:17:49.563Z,0.54
2023-05-17T02:18:49.559Z,0.53
2023-05-17T02:19:49.529Z,0.53
2023-05-17T02:20:49.547Z,0.54
2023-05-17T02:21:49.556Z,0.53
2023-05-17T02:22:49.628Z,0.54
2023-05-17T02:23:49.605Z,0.54
2023-05-17T02:24:49.675Z,0.53
2023-05-17T02:25:49.738Z,0.53
2023-05-17T02:26:49.707Z,0.54
2023-05-17T02:27:49.794Z,0.53
2023-05-17T02:28:49.789Z,0.52
2023-05-17T02:29:49.815Z,0.52
2023-05-17T02:30:49.838Z,0.53
2023-05-17T02:31:49.913Z,0.53
2023-05-17T02:32:50.024Z,0.53
2023-05-17T02:33:50.188Z,0.54
2023-05-17T02:34:49.972Z,0.54
2023-05-17T02:35:50.033Z,0.52
2023-05-17T02:36:50.010Z,0.53
2023-05-17T02:37:50.066Z,0.53
2023-05-17T02:38:50.069Z,0.54
2023-05-17T02:39:50.119Z,0.53
2023-05-17T02:40:50.133Z,0.53
2023-05-17T02:41:50.199Z,0.54
2023-05-17T02:42:50.232Z,0.53
2023-05-17T02:43:50.245Z,0.52
2023-05-17T02:44:50.277Z,0.54
2023-05-17T02:45:50.320Z,0.54
2023-05-17T02:46:50.327Z,0.53
2023-05-17T02:47:50.447Z,0.53
2023-05-17T02:48:50.410Z,0.53
2023-05-17T02:49:50.513Z,0.52
2023-05-17T02:50:50.439Z,0.53
2023-05-17T02:51:50.466Z,0.52
2023-05-17T02:52:50.472Z,0.54
2023-05-17T02:53:50.519Z,0.53
2023-05-17T02:54:50.561Z,0.53
2023-05-17T02:55:50.586Z,0.54
2023-05-17T02:56:50.628Z,0.54
2023-05-17T02:57:50.677Z,0.53
2023-05-17T02:58:50.718Z,0.54
2023-05-17T02:59:50.831Z,0.53
2023-05-17T03:00:50.810Z,0.53
2023-05-17T03:01:50.840Z,0.53
2023-05-17T03:02:51.050Z,0.54
2023-05-17T03:03:51.136Z,0.52
2023-05-17T03:04:51.070Z,0.53
2023-05-17T03:05:51.173Z,0.53
2023-05-17T03:06:51.068Z,0.53
2023-05-17T03:07:51.123Z,0.53
2023-05-17T03:08:51.140Z,0.54
2023-05-17T03:09:51.168Z,0.54
2023-05-17T03:10:51.223Z,0.53
2023-05-17T03:11:51.267Z,0.52
2023-05-17T03:12:51.341Z,0.53
2023-05-17T03:13:51.345Z,0.53
2023-05-17T03:14:51.397Z,0.52
2023-05-17T03:15:51.425Z,0.53
2023-05-17T03:16:52.207Z,0.52
2023-05-17T03:17:51.583Z,0.53
2023-05-17T03:18:51.646Z,0.52
2023-05-17T03:19:51.653Z,0.52
2023-05-17T03:20:51.548Z,0.53
2023-05-17T03:21:51.619Z,0.52
2023-05-17T03:22:51.635Z,0.53
2023-05-17T03:23:51.644Z,0.53
2023-05-17T03:24:51.649Z,0.53
2023-05-17T03:25:51.707Z,0.54
2023-05-17T03:26:51.748Z,0.53
2023-05-17T03:27:51.778Z,0.53
2023-05-17T03:28:51.746Z,0.53
2023-05-17T03:29:51.827Z,0.53
2023-05-17T03:30:51.827Z,0.51
2023-05-17T03:31:51.801Z,0.53
2023-05-17T03:32:52.357Z,0.53
2023-05-17T03:33:51.912Z,0.53
2023-05-17T03:34:51.905Z,0.53
2023-05-17T03:35:51.922Z,0.53
2023-05-17T03:36:51.997Z,0.52
2023-05-17T03:37:52.772Z,0.54
2023-05-17T03:38:52.072Z,0.52
2023-05-17T03:39:52.099Z,0.53
2023-05-17T03:40:52.134Z,0.53
2023-05-17T03:41:52.171Z,0.53
2023-05-17T03:42:52.228Z,0.53
2023-05-17T03:43:52.252Z,0.52
2023-05-17T03:44:52.267Z,0.52
2023-05-17T03:45:52.329Z,0.52
2023-05-17T03:46:52.381Z,0.53
2023-05-17T03:47:52.450Z,0.52
2023-05-17T03:48:52.471Z,0.53
2023-05-17T03:49:52.524Z,0.53
2023-05-17T03:50:52.542Z,0.53
2023-05-17T03:51:52.530Z,0.54
2023-05-17T03:52:52.838Z,0.53
2023-05-17T03:53:52.711Z,0.52
2023-05-17T03:54:52.618Z,0.53
2023-05-17T03:55:52.665Z,0.52
2023-05-17T03:56:52.684Z,0.53
2023-05-17T03:57:52.705Z,0.52
2023-05-17T03:58:52.753Z,0.53
2023-05-17T03:59:52.759Z,0.52
2023-05-17T04:00:52.792Z,0.53
2023-05-17T04:01:52.784Z,0.52
2023-05-17T04:02:52.919Z,0.53
2023-05-17T04:03:52.927Z,0.52
2023-05-17T04:04:52.961Z,0.52
2023-05-17T04:05:52.977Z,0.53
2023-05-17T04:06:52.934Z,0.53
2023-05-17T04:07:52.963Z,0.51
2023-05-17T04:08:52.955Z,0.52
2023-05-17T04:09:53.054Z,0.53
2023-05-17T04:10:53.011Z,0.52
2023-05-17T04:11:53.044Z,0.53
2023-05-17T04:12:53.090Z,0.51
2023-05-17T04:13:53.090Z,0.51
2023-05-17T04:14:53.125Z,0.52
2023-05-17T04:15:53.105Z,0.52
2023-05-17T04:16:53.162Z,0.52
2023-05-17T04:17:53.250Z,0.52
2023-05-17T04:18:53.307Z,0.52
2023-05-17T04:19:53.210Z,0.52
2023-05-17T04:20:53.204Z,0.51
2023-05-17T04:21:53.233Z,0.52
2023-05-17T04:22:53.297Z,0.52
2023-05-17T04:23:53.272Z,0.52
2023-05-17T04:24:53.287Z,0.52
2023-05-17T04:25:53.373Z,0.52
2023-05-17T04:26:53.305Z,0.51
2023-05-17T04:27:53.803Z,0.52
2023-05-17T04:28:53.365Z,0.51
2023-05-17T04:29:53.407Z,0.52
2023-05-17T04:30:53.389Z,0.51
2023-05-17T04:31:53.421Z,0.53
2023-05-17T04:32:53.540Z,0.52
2023-05-17T04:33:53.427Z,0.52
2023-05-17T04:34:53.468Z,0.51
2023-05-17T04:35:53.474Z,0.52
2023-05-17T04:36:53.514Z,0.51
2023-05-17T04:37:53.495Z,0.51
2023-05-17T04:38:53.543Z,0.53
2023-05-17T04:39:53.562Z,0.52
2023-05-17T04:40:53.557Z,0.52
2023-05-17T04:41:53.677Z,0.53
2023-05-17T04:42:53.575Z,0.52
2023-05-17T04:43:53.591Z,0.53
2023-05-17T04:44:53.588Z,0.52
2023-05-17T04:45:53.593Z,0.52
2023-05-17T04:46:53.599Z,0.52
2023-05-17T04:47:53.741Z,0.52
2023-05-17T04:48:53.750Z,0.52
2023-05-17T04:49:53.674Z,0.52
2023-05-17T04:50:53.726Z,0.52
2023-05-17T04:51:53.742Z,0.51
2023-05-17T04:52:53.738Z,0.51
2023-05-17T04:53:53.816Z,0.52
2023-05-17T04:54:53.910Z,0.51
2023-05-17T04:55:53.908Z,0.52
2023-05-17T04:56:53.901Z,0.52
2023-05-17T04:57:54.031Z,0.52
2023-05-17T04:58:53.975Z,0.52
2023-05-17T04:59:53.961Z,0.51
2023-05-17T05:00:54.013Z,0.51
2023-05-17T05:01:54.011Z,0.51
2023-05-17T05:02:54.100Z,0.51
2023-05-17T05:03:54.136Z,0.51
2023-05-17T05:04:54.092Z,0.51
2023-05-17T05:05:54.060Z,0.52
2023-05-17T05:06:54.084Z,0.51
2023-05-17T05:07:54.086Z,0.51
2023-05-17T05:08:54.102Z,0.53
2023-05-17T05:09:54.123Z,0.52
2023-05-17T05:10:54.076Z,0.52
2023-05-17T05:11:54.068Z,0.52
2023-05-17T05:12:54.109Z,0.52
2023-05-17T05:13:54.211Z,0.51
2023-05-17T05:14:54.146Z,0.52
2023-05-17T05:15:54.220Z,0.52
2023-05-17T05:16:54.177Z,0.52
2023-05-17T05:17:54.417Z,0.52
2023-05-17T05:18:54.539Z,0.52
2023-05-17T05:19:54.386Z,0.52
2023-05-17T05:20:54.217Z,0.51
2023-05-17T05:21:54.255Z,0.52
2023-05-17T05:22:54.210Z,0.51
2023-05-17T05:23:54.214Z,0.52
2023-05-17T05:24:54.222Z,0.51
2023-05-17T05:25:54.258Z,0.51
2023-05-17T05:26:54.267Z,0.51
2023-05-17T05:27:54.241Z,0.50
2023-05-17T05:28:54.239Z,0.52
2023-05-17T05:29:54.428Z,0.51
2023-05-17T05:30:54.272Z,0.52
2023-05-17T05:31:54.279Z,0.51
2023-05-17T05:32:54.314Z,0.51
2023-05-17T05:33:54.267Z,0.50
2023-05-17T05:34:54.240Z,0.51
2023-05-17T05:35:54.248Z,0.51
2023-05-17T05:36:54.254Z,0.51
2023-05-17T05:37:54.219Z,0.51
2023-05-17T05:38:54.229Z,0.51
2023-05-17T05:39:54.270Z,0.51
2023-05-17T05:40:54.294Z,0.52
2023-05-17T05:41:54.231Z,0.52
2023-05-17T05:42:54.229Z,0.52
2023-05-17T05:43:54.255Z,0.52
2023-05-17T05:44:54.235Z,0.51
2023-05-17T05:45:54.382Z,0.52
2023-05-17T05:46:54.226Z,0.51
2023-05-17T05:47:54.456Z,0.51
2023-05-17T05:48:54.254Z,0.53
2023-05-17T05:49:54.248Z,0.52
2023-05-17T05:50:54.252Z,0.51
2023-05-17T05:51:54.267Z,0.51
2023-05-17T05:52:58.028Z,0.51
2023-05-17T05:53:55.314Z,0.51
2023-05-17T05:54:54.252Z,0.51
2023-05-17T05:55:54.254Z,0.51
2023-05-17T05:56:54.255Z,0.51
2023-05-17T05:57:54.270Z,0.52
2023-05-17T05:58:54.237Z,0.52
2023-05-17T05:59:54.223Z,0.52
2023-05-17T06:00:54.226Z,0.52
2023-05-17T06:01:54.285Z,0.52
2023-05-17T06:03:54.254Z,0.52
2023-05-17T06:04:54.223Z,0.51
2023-05-17T06:05:54.255Z,0.51
2023-05-17T06:06:54.338Z,0.52
2023-05-17T06:07:54.185Z,0.52
2023-05-17T06:08:54.185Z,0.51
2023-05-17T06:09:54.188Z,0.52
2023-05-17T06:10:54.168Z,0.51
2023-05-17T06:11:54.142Z,0.52
2023-05-17T06:12:54.359Z,0.51
2023-05-17T06:13:54.140Z,0.51
2023-05-17T06:14:54.125Z,0.52
2023-05-17T06:15:54.138Z,0.51
2023-05-17T06:16:54.146Z,0.52
2023-05-17T06:17:54.300Z,0.51
2023-05-17T06:18:54.204Z,0.52
2023-05-17T06:19:54.237Z,0.50
2023-05-17T06:20:54.180Z,0.51
2023-05-17T06:21:54.158Z,0.51
2023-05-17T06:22:54.207Z,0.52
2023-05-17T06:23:54.178Z,0.51
2023-05-17T06:24:54.230Z,0.51
2023-05-17T06:25:54.177Z,0.52
2023-05-17T06:26:54.188Z,0.51
2023-05-17T06:27:54.205Z,0.51
2023-05-17T06:28:54.193Z,0.53
2023-05-17T06:29:54.228Z,0.52
2023-05-17T06:30:54.259Z,0.51
2023-05-17T06:31:54.269Z,0.52
2023-05-17T06:32:54.323Z,0.51
2023-05-17T06:33:54.464Z,0.52
2023-05-17T06:34:54.277Z,0.52
2023-05-17T06:35:57.011Z,0.52
2023-05-17T06:36:54.330Z,0.53
2023-05-17T06:37:54.335Z,0.51
2023-05-17T06:38:54.298Z,0.52
2023-05-17T06:40:00.171Z,0.53
2023-05-17T06:40:55.326Z,0.53
2023-05-17T06:41:54.307Z,0.53
2023-05-17T06:42:54.288Z,0.53
2023-05-17T06:43:54.274Z,0.53
2023-05-17T06:44:54.247Z,0.53
2023-05-17T06:45:54.226Z,0.53
2023-05-17T06:46:54.248Z,0.51
2023-05-17T06:47:54.351Z,0.51
2023-05-17T06:48:54.398Z,0.51
2023-05-17T06:49:54.381Z,0.51
2023-05-17T06:50:54.226Z,0.51
2023-05-17T06:51:54.194Z,0.53
2023-05-17T06:52:54.200Z,0.52
2023-05-17T06:53:54.214Z,0.52
2023-05-17T06:54:54.187Z,0.51
2023-05-17T06:55:54.192Z,0.51
2023-05-17T06:56:54.204Z,0.52
2023-05-17T06:57:54.166Z,0.52
2023-05-17T06:58:54.154Z,0.52
2023-05-17T06:59:54.188Z,0.52
2023-05-17T07:00:54.208Z,0.52
2023-05-17T07:01:54.186Z,0.52
2023-05-17T07:02:54.245Z,0.52
2023-05-17T07:03:54.281Z,0.52
2023-05-17T07:04:54.313Z,0.52
2023-05-17T07:05:54.197Z,0.52
2023-05-17T07:06:54.203Z,0.52
2023-05-17T07:07:54.363Z,0.52
2023-05-17T07:08:54.198Z,0.53
2023-05-17T07:09:54.192Z,0.51
2023-05-17T07:10:54.200Z,0.53
2023-05-17T07:11:54.151Z,0.51
2023-05-17T07:12:54.183Z,0.53
2023-05-17T07:13:54.541Z,0.53
2023-05-17T07:14:54.151Z,0.52
2023-05-17T07:15:54.190Z,0.52
2023-05-17T07:16:54.200Z,0.52
2023-05-17T07:17:54.273Z,0.52
2023-05-17T07:18:54.305Z,0.52
2023-05-17T07:19:54.288Z,0.51
2023-05-17T07:20:54.250Z,0.52
2023-05-17T07:21:54.358Z,0.53
2023-05-17T07:22:54.243Z,0.52
2023-05-17T07:23:54.300Z,0.51
2023-05-17T07:24:54.262Z,0.52
2023-05-17T07:25:54.315Z,0.53
2023-05-17T07:26:54.294Z,0.52
2023-05-17T07:27:54.360Z,0.52
2023-05-17T07:28:54.310Z,0.53
2023-05-17T07:29:54.271Z,0.52
2023-05-17T07:30:54.258Z,0.52
2023-05-17T07:31:54.282Z,0.53
2023-05-17T07:32:54.355Z,0.52
2023-05-17T07:33:54.309Z,0.52
2023-05-17T07:34:54.273Z,0.53
2023-05-17T07:35:54.306Z,0.52
2023-05-17T07:36:54.241Z,0.52
2023-05-17T07:37:54.360Z,0.51
2023-05-17T07:38:54.312Z,0.52
2023-05-17T07:39:54.250Z,0.52
2023-05-17T07:40:54.290Z,0.53
2023-05-17T07:41:54.247Z,0.52
2023-05-17T07:42:54.255Z,0.52
2023-05-17T07:43:54.259Z,0.52
2023-05-17T07:44:54.233Z,0.52
2023-05-17T07:45:54.247Z,0.52
2023-05-17T07:46:54.300Z,0.52
2023-05-17T07:47:54.453Z,0.53
2023-05-17T07:48:57.290Z,0.52
2023-05-17T07:49:54.279Z,0.53
2023-05-17T07:50:54.275Z,0.53
2023-05-17T07:51:54.253Z,0.52
2023-05-17T07:52:54.234Z,0.53
2023-05-17T07:53:54.222Z,0.53
2023-05-17T07:54:54.202Z,0.52
2023-05-17T07:55:54.177Z,0.52
2023-05-17T07:56:54.200Z,0.53
2023-05-17T07:57:54.178Z,0.52
2023-05-17T07:58:54.170Z,0.53
2023-05-17T07:59:54.179Z,0.53
2023-05-17T08:00:54.170Z,0.53
2023-05-17T08:01:54.165Z,0.52
2023-05-17T08:02:54.231Z,0.52
2023-05-17T08:03:54.162Z,0.52
2023-05-17T08:04:54.218Z,0.53
2023-05-17T08:05:54.183Z,0.52
2023-05-17T08:06:54.871Z,0.52
2023-05-17T08:07:54.139Z,0.51
2023-05-17T08:08:54.119Z,0.53
2023-05-17T08:09:54.205Z,0.52
2023-05-17T08:10:54.070Z,0.53
2023-05-17T08:11:54.086Z,0.52
2023-05-17T08:12:54.090Z,0.52
2023-05-17T08:13:54.088Z,0.51
2023-05-17T08:14:54.086Z,0.52
2023-05-17T08:16:01.744Z,0.52
2023-05-17T08:16:55.068Z,0.52
2023-05-17T08:17:54.146Z,0.52
2023-05-17T08:18:54.194Z,0.52
2023-05-17T08:19:54.078Z,0.53
2023-05-17T08:20:54.036Z,0.51
2023-05-17T08:21:54.012Z,0.53
2023-05-17T08:22:54.363Z,0.52
2023-05-17T08:23:54.021Z,0.52
2023-05-17T08:24:54.025Z,0.52
2023-05-17T08:25:54.091Z,0.52
2023-05-17T08:26:53.991Z,0.51
2023-05-17T08:27:54.026Z,0.52
2023-05-17T08:28:54.802Z,0.52
2023-05-17T08:29:53.985Z,0.51
2023-05-17T08:30:53.963Z,0.51
2023-05-17T08:31:53.951Z,0.51
2023-05-17T08:32:54.107Z,0.52
2023-05-17T08:33:53.998Z,0.51
2023-05-17T08:34:53.935Z,0.52
2023-05-17T08:35:53.931Z,0.51
2023-05-17T08:36:53.964Z,0.52
2023-05-17T08:37:53.902Z,0.51
2023-05-17T08:38:53.894Z,0.50
2023-05-17T08:39:53.904Z,0.52
2023-05-17T08:40:53.860Z,0.51
2023-05-17T08:41:53.971Z,0.52
2023-05-17T08:42:53.852Z,0.52
2023-05-17T08:43:53.882Z,0.52
2023-05-17T08:44:53.861Z,0.52
2023-05-17T08:45:53.813Z,0.51
2023-05-17T08:46:53.988Z,0.53
2023-05-17T08:47:53.902Z,0.52
2023-05-17T08:48:53.872Z,0.51
2023-05-17T08:49:53.795Z,0.51
2023-05-17T08:50:53.821Z,0.51
2023-05-17T08:51:53.802Z,0.52
2023-05-17T08:52:53.857Z,0.53
2023-05-17T08:53:53.802Z,0.53
2023-05-17T08:54:53.765Z,0.52
2023-05-17T08:55:53.769Z,0.52
2023-05-17T08:56:53.743Z,0.51
2023-05-17T08:57:53.761Z,0.52
2023-05-17T08:58:56.915Z,0.53
2023-05-17T08:59:53.733Z,0.53
2023-05-17T09:00:53.722Z,0.53
2023-05-17T09:01:53.718Z,0.52
2023-05-17T09:02:53.861Z,0.52
2023-05-17T09:03:53.852Z,0.49
2023-05-17T09:04:53.797Z,0.52
2023-05-17T09:05:53.771Z,0.52
2023-05-17T09:06:53.712Z,0.53
2023-05-17T09:07:53.698Z,0.52
2023-05-17T09:08:53.679Z,0.51
2023-05-17T09:09:53.668Z,0.52
2023-05-17T09:10:53.657Z,0.51
2023-05-17T09:11:53.669Z,0.50
2023-05-17T09:12:53.648Z,0.51
2023-05-17T09:13:53.636Z,0.53
2023-05-17T09:14:53.637Z,0.56
2023-05-17T09:15:53.601Z,0.55
2023-05-17T09:16:53.625Z,0.56
2023-05-17T09:17:53.805Z,0.57
2023-05-17T09:18:53.661Z,0.56
2023-05-17T09:19:53.702Z,0.57
2023-05-17T09:20:53.611Z,0.61
2023-05-17T09:21:53.584Z,0.60
2023-05-17T09:22:53.940Z,0.59
2023-05-17T09:24:04.592Z,0.62
2023-05-17T09:24:54.577Z,0.62
2023-05-17T09:25:53.548Z,0.61
2023-05-17T09:26:53.542Z,0.61
2023-05-17T09:27:53.562Z,0.60
2023-05-17T09:28:53.547Z,0.63
2023-05-17T09:29:53.560Z,0.63
2023-05-17T09:30:53.552Z,0.63
2023-05-17T09:31:53.515Z,0.63
2023-05-17T09:32:53.535Z,0.63
2023-05-17T09:33:53.627Z,0.62
2023-05-17T09:34:53.509Z,0.64
2023-05-17T09:35:53.504Z,0.65
2023-05-17T09:36:53.498Z,0.67
2023-05-17T09:37:53.507Z,0.62
2023-05-17T09:38:53.500Z,0.68
2023-05-17T09:39:53.523Z,0.68
2023-05-17T09:40:53.557Z,0.71
2023-05-17T09:41:53.578Z,0.71
2023-05-17T09:42:53.597Z,0.66
2023-05-17T09:43:53.621Z,0.65
2023-05-17T09:44:53.610Z,0.64
2023-05-17T09:45:53.631Z,0.65
2023-05-17T09:46:53.669Z,0.69
2023-05-17T09:47:53.763Z,0.70
2023-05-17T09:48:53.712Z,0.71
2023-05-17T09:49:53.698Z,0.69
2023-05-17T09:50:53.696Z,0.70
2023-05-17T09:51:53.738Z,0.72
2023-05-17T09:52:53.742Z,0.74
2023-05-17T09:53:53.891Z,0.74
2023-05-17T09:54:53.800Z,0.76
2023-05-17T09:55:53.809Z,0.76
2023-05-17T09:56:53.831Z,0.77
2023-05-17T09:57:53.872Z,0.78
2023-05-17T09:58:53.950Z,0.78
2023-05-17T09:59:53.926Z,0.77
2023-05-17T10:00:53.992Z,0.75
2023-05-17T10:01:53.994Z,0.77
2023-05-17T10:02:54.153Z,0.78
2023-05-17T10:03:54.148Z,0.80
2023-05-17T10:04:54.233Z,0.79
2023-05-17T10:05:54.161Z,0.78
2023-05-17T10:06:54.172Z,0.79
2023-05-17T10:07:54.193Z,0.80
2023-05-17T10:08:54.237Z,0.79
2023-05-17T10:09:54.278Z,0.79
2023-05-17T10:10:54.342Z,0.79
2023-05-17T10:11:54.361Z,0.80
2023-05-17T10:12:54.409Z,0.80
2023-05-17T10:13:54.420Z,0.79
2023-05-17T10:14:54.502Z,0.80
2023-05-17T10:15:54.551Z,0.80
2023-05-17T10:16:54.572Z,0.81
2023-05-17T10:17:54.709Z,0.81
2023-05-17T10:18:54.990Z,0.81
2023-05-17T10:19:54.847Z,0.81
2023-05-17T10:20:54.686Z,0.82
2023-05-17T10:21:54.804Z,0.81
2023-05-17T10:22:55.516Z,0.80
2023-05-17T10:23:54.852Z,0.80
2023-05-17T10:24:54.892Z,0.81
2023-05-17T10:25:54.949Z,0.82
2023-05-17T10:26:54.990Z,0.81
2023-05-17T10:27:55.001Z,0.82
2023-05-17T10:28:55.075Z,0.82
2023-05-17T10:29:55.105Z,0.82
2023-05-17T10:30:55.169Z,0.82
2023-05-17T10:31:55.233Z,0.81
2023-05-17T10:32:55.318Z,0.81
2023-05-17T10:33:55.411Z,0.82
2023-05-17T10:35:09.583Z,0.83
2023-05-17T10:35:56.330Z,0.83
2023-05-17T10:36:55.310Z,0.83
2023-05-17T10:37:55.333Z,0.83
2023-05-17T10:38:55.325Z,0.84
2023-05-17T10:39:55.338Z,0.83
2023-05-17T10:40:55.313Z,0.84
2023-05-17T10:42:06.812Z,0.83
2023-05-17T10:42:56.289Z,0.83
2023-05-17T10:43:55.301Z,0.83
2023-05-17T10:44:55.259Z,0.84
2023-05-17T10:45:55.277Z,0.80
2023-05-17T10:46:55.276Z,0.82
2023-05-17T10:47:55.304Z,0.81
2023-05-17T10:48:55.311Z,0.82
2023-05-17T10:49:55.233Z,0.83
2023-05-17T10:51:01.779Z,0.81
2023-05-17T10:51:56.241Z,0.82
2023-05-17T10:52:55.260Z,0.82
2023-05-17T10:53:55.233Z,0.81
2023-05-17T10:54:57.134Z,0.81
2023-05-17T10:55:55.206Z,0.81
2023-05-17T10:56:55.185Z,0.83
2023-05-17T10:57:55.192Z,0.81
2023-05-17T10:58:55.193Z,0.82
2023-05-17T10:59:55.146Z,0.82
2023-05-17T11:00:55.936Z,0.83
2023-05-17T11:01:55.189Z,0.82
2023-05-17T11:02:55.300Z,0.82
2023-05-17T11:03:55.446Z,0.82
2023-05-17T11:04:55.366Z,0.81
2023-05-17T11:05:55.825Z,0.81
2023-05-17T11:06:55.413Z,0.81
2023-05-17T11:07:55.431Z,0.82
2023-05-17T11:08:55.583Z,0.82
2023-05-17T11:09:55.593Z,0.81
2023-05-17T11:10:55.589Z,0.82
2023-05-17T11:11:55.679Z,0.81
2023-05-17T11:12:55.678Z,0.82
2023-05-17T11:13:55.736Z,0.82
2023-05-17T11:14:55.803Z,0.82
2023-05-17T11:15:55.819Z,0.81
2023-05-17T11:16:57.526Z,0.82
2023-05-17T11:17:55.906Z,0.82
2023-05-17T11:18:56.114Z,0.82
2023-05-17T11:19:56.105Z,0.81
2023-05-17T11:20:56.170Z,0.82
2023-05-17T11:21:56.120Z,0.82
2023-05-17T11:22:56.129Z,0.81
2023-05-17T11:23:56.200Z,0.82
2023-05-17T11:24:56.221Z,0.80
2023-05-17T11:25:58.137Z,0.82
2023-05-17T11:26:57.254Z,0.82
2023-05-17T11:27:56.246Z,0.82
2023-05-17T11:28:56.313Z,0.82
2023-05-17T11:29:56.250Z,0.82
2023-05-17T11:30:56.242Z,0.80
2023-05-17T11:31:56.263Z,0.80
2023-05-17T11:32:56.240Z,0.79
2023-05-17T11:33:56.309Z,0.81
2023-05-17T11:34:56.548Z,0.81
2023-05-17T11:35:56.258Z,0.79
2023-05-17T11:36:56.194Z,0.81
2023-05-17T11:37:56.449Z,0.79
2023-05-17T11:39:07.407Z,0.80
2023-05-17T11:39:57.295Z,0.80
2023-05-17T11:40:56.287Z,0.80
2023-05-17T11:41:56.291Z,0.80
2023-05-17T11:42:56.304Z,0.78
2023-05-17T11:43:56.283Z,0.81
2023-05-17T11:44:56.730Z,0.80
2023-05-17T11:45:56.253Z,0.80
2023-05-17T11:46:56.265Z,0.82
2023-05-17T11:47:56.298Z,0.79
2023-05-17T11:48:56.344Z,0.82
2023-05-17T11:49:56.767Z,0.80
2023-05-17T11:50:56.369Z,0.80
2023-05-17T11:51:56.402Z,0.80
2023-05-17T11:52:56.454Z,0.79
2023-05-17T11:53:56.941Z,0.81
2023-05-17T11:54:56.563Z,0.80
2023-05-17T11:55:56.624Z,0.79
2023-05-17T11:56:56.693Z,0.80
2023-05-17T11:57:56.714Z,0.80
2023-05-17T11:58:56.796Z,0.80
2023-05-17T11:59:56.864Z,0.79
2023-05-17T12:00:56.913Z,0.79
2023-05-17T12:01:56.921Z,0.79
2023-05-17T12:02:57.044Z,0.80
2023-05-17T12:03:57.047Z,0.78
2023-05-17T12:04:57.235Z,0.82
2023-05-17T12:05:57.162Z,0.78
2023-05-17T12:06:57.231Z,0.79
2023-05-17T12:07:57.293Z,0.78
2023-05-17T12:08:57.444Z,0.79
2023-05-17T12:09:57.397Z,0.79
2023-05-17T12:10:57.444Z,0.78
2023-05-17T12:11:57.538Z,0.78
2023-05-17T12:12:57.586Z,0.79
2023-05-17T12:13:57.627Z,0.78
2023-05-17T12:14:57.722Z,0.78
2023-05-17T12:15:57.789Z,0.78
2023-05-17T12:16:57.836Z,0.78
2023-05-17T12:17:58.034Z,0.77
2023-05-17T12:18:58.108Z,0.76
2023-05-17T12:19:58.064Z,0.77
2023-05-17T12:20:58.070Z,0.77
2023-05-17T12:21:58.116Z,0.79
2023-05-17T12:22:58.188Z,0.78
2023-05-17T12:23:58.250Z,0.77
2023-05-17T12:24:58.391Z,0.77
2023-05-17T12:25:58.364Z,0.76
2023-05-17T12:26:58.419Z,0.76
2023-05-17T12:27:58.480Z,0.78
2023-05-17T12:28:58.947Z,0.75
2023-05-17T12:29:58.634Z,0.77
2023-05-17T12:30:58.727Z,0.76
2023-05-17T12:31:58.762Z,0.76
2023-05-17T12:32:58.882Z,0.75
2023-05-17T12:33:58.951Z,0.75
2023-05-17T12:34:58.911Z,0.75
2023-05-17T12:35:59.013Z,0.75
2023-05-17T12:36:59.057Z,0.76
2023-05-17T12:37:59.121Z,0.75
2023-05-17T12:38:59.447Z,0.74
2023-05-17T12:39:59.240Z,0.75
2023-05-17T12:40:59.324Z,0.76
2023-05-17T12:41:59.415Z,0.75
2023-05-17T12:42:59.463Z,0.75
2023-05-17T12:44:13.605Z,0.75
2023-05-17T12:45:00.523Z,0.75
2023-05-17T12:46:00.382Z,0.76
2023-05-17T12:46:59.477Z,0.75
2023-05-17T12:47:59.500Z,0.74
2023-05-17T12:48:59.498Z,0.73
2023-05-17T12:49:59.451Z,0.73
2023-05-17T12:50:59.436Z,0.73
2023-05-17T12:51:59.452Z,0.73
2023-05-17T12:52:59.439Z,0.73
2023-05-17T12:53:59.511Z,0.73
2023-05-17T12:54:59.600Z,0.74
2023-05-17T12:55:59.638Z,0.73
2023-05-17T12:56:59.706Z,0.74
2023-05-17T12:57:59.757Z,0.74
2023-05-17T12:58:59.953Z,0.73
2023-05-17T12:59:59.865Z,0.73
2023-05-17T13:01:06.991Z,0.73
2023-05-17T13:01:59.881Z,0.73
2023-05-17T13:02:59.923Z,0.73
2023-05-17T13:04:00.001Z,0.73
2023-05-17T13:04:59.894Z,0.73
2023-05-17T13:05:59.828Z,0.72
2023-05-17T13:06:59.845Z,0.71
2023-05-17T13:07:59.822Z,0.73
2023-05-17T13:08:59.861Z,0.72
2023-05-17T13:09:59.841Z,0.70
2023-05-17T13:10:59.836Z,0.72
2023-05-17T13:11:59.835Z,0.71
2023-05-17T13:12:59.817Z,0.72
2023-05-17T13:13:59.998Z,0.70
2023-05-17T13:14:59.790Z,0.71
2023-05-17T13:15:59.767Z,0.70
2023-05-17T13:16:59.809Z,0.69
2023-05-17T13:17:59.839Z,0.70
2023-05-17T13:18:59.833Z,0.69
2023-05-17T13:19:59.867Z,0.69